createdAt,value
2023-05-16T00:01:20.311Z,99632.47
2023-05-16T00:04:23.772Z,99618.25
2023-05-16T00:07:26.414Z,99615.00
2023-05-16T00:10:29.281Z,99610.22
2023-05-16T00:13:31.922Z,99611.47
2023-05-16T00:16:37.097Z,99592.22
2023-05-16T00:19:40.193Z,99585.19
2023-05-16T00:22:43.723Z,99595.69
2023-05-16T00:25:47.219Z,99593.34
2023-05-16T00:28:49.957Z,99599.72
2023-05-16T00:31:53.100Z,99591.47
2023-05-16T00:34:56.350Z,99589.56
2023-05-16T00:37:58.876Z,99593.03
2023-05-16T00:41:01.806Z,99588.91
2023-05-16T00:44:04.744Z,99599.72
2023-05-16T00:47:08.203Z,99605.19
2023-05-16T00:50:11.021Z,99598.44
2023-05-16T00:53:13.816Z,99601.84
2023-05-16T00:56:17.896Z,99615.78
2023-05-16T00:59:20.944Z,99609.91
2023-05-16T01:02:28.443Z,99620.69
2023-05-16T01:05:31.660Z,99622.06
2023-05-16T01:08:34.231Z,99626.97
2023-05-16T01:11:56.551Z,99621.97
2023-05-16T01:15:09.778Z,99614.69
2023-05-16T01:18:18.501Z,99621.09
2023-05-16T01:21:50.032Z,99630.44
2023-05-16T01:25:16.500Z,99613.72
2023-05-16T01:28:20.066Z,99623.50
2023-05-16T01:31:23.581Z,99626.06
2023-05-16T01:34:26.916Z,99623.88
2023-05-16T01:37:41.663Z,99619.69
2023-05-16T01:41:10.557Z,99601.00
2023-05-16T01:44:25.602Z,99588.94
2023-05-16T01:47:30.854Z,99587.66
2023-05-16T01:50:37.036Z,99579.03
2023-05-16T01:53:40.060Z,99582.00
2023-05-16T01:56:51.550Z,99577.13
2023-05-16T01:59:54.200Z,99568.63
2023-05-16T02:02:57.033Z,99551.13
2023-05-16T02:06:00.676Z,99557.06
2023-05-16T02:09:03.366Z,99560.59
2023-05-16T02:12:06.259Z,99572.41
2023-05-16T02:15:10.080Z,99577.78
2023-05-16T02:18:14.115Z,99579.91
2023-05-16T02:21:16.658Z,99571.50
2023-05-16T02:24:19.567Z,99555.84
2023-05-16T02:27:22.180Z,99549.53
2023-05-16T02:30:25.004Z,99534.63
2023-05-16T02:33:29.355Z,99529.78
2023-05-16T02:36:34.452Z,99532.19
2023-05-16T02:39:37.918Z,99540.91
2023-05-16T02:42:42.859Z,99532.41
2023-05-16T02:45:45.689Z,99530.19
2023-05-16T02:48:49.429Z,99536.25
2023-05-16T02:51:54.462Z,99553.88
2023-05-16T02:55:09.960Z,99545.75
2023-05-16T02:58:20.710Z,99556.78
2023-05-16T03:01:23.656Z,99562.31
2023-05-16T03:04:26.274Z,99568.13
2023-05-16T03:07:29.848Z,99555.56
2023-05-16T03:10:32.373Z,99542.06
2023-05-16T03:13:35.219Z,99537.09
2023-05-16T03:16:39.017Z,99524.28
2023-05-16T03:19:41.912Z,99525.00
2023-05-16T03:22:45.241Z,99531.38
2023-05-16T03:25:48.517Z,99546.78
2023-05-16T03:28:51.360Z,99549.00
2023-05-16T03:31:54.550Z,99544.53
2023-05-16T03:34:57.200Z,99554.28
2023-05-16T03:38:00.132Z,99553.00
2023-05-16T03:41:02.690Z,99549.25
2023-05-16T03:44:05.611Z,99552.84
2023-05-16T03:47:08.563Z,99535.13
2023-05-16T03:50:11.739Z,99521.87
2023-05-16T03:53:14.347Z,99536.41
2023-05-16T03:56:17.459Z,99539.75
2023-05-16T03:59:19.890Z,99540.12
2023-05-16T04:02:22.938Z,99537.09
2023-05-16T04:05:26.443Z,99530.81
2023-05-16T04:08:29.817Z,99532.03
2023-05-16T04:11:32.992Z,99544.69
2023-05-16T04:14:35.678Z,99546.19
2023-05-16T04:17:38.844Z,99557.50
2023-05-16T04:20:44.676Z,99561.75
2023-05-16T04:23:47.673Z,99563.88
2023-05-16T04:26:51.277Z,99543.25
2023-05-16T04:29:54.184Z,99550.72
2023-05-16T04:32:59.372Z,99563.59
2023-05-16T04:36:03.945Z,99573.87
2023-05-16T04:39:07.489Z,99569.16
2023-05-16T04:42:10.373Z,99582.59
2023-05-16T04:45:14.465Z,99579.75
2023-05-16T04:48:19.713Z,99571.63
2023-05-16T04:51:23.073Z,99581.53
2023-05-16T04:54:26.528Z,99587.91
2023-05-16T04:57:29.174Z,99588.22
2023-05-16T05:00:32.037Z,99592.06
2023-05-16T05:03:36.128Z,99581.03
2023-05-16T05:06:38.977Z,99573.28
2023-05-16T05:09:42.992Z,99573.28
2023-05-16T05:12:45.794Z,99581.22
2023-05-16T05:15:50.353Z,99598.75
2023-05-16T05:18:53.389Z,99594.81
2023-05-16T05:21:56.647Z,99586.81
2023-05-16T05:24:59.808Z,99599.47
2023-05-16T05:28:04.044Z,99585.41
2023-05-16T05:31:08.065Z,99590.81
2023-05-16T05:34:10.656Z,99594.78
2023-05-16T05:37:14.598Z,99595.19
2023-05-16T05:40:17.223Z,99585.53
2023-05-16T05:43:20.105Z,99580.09
2023-05-16T05:46:24.832Z,99583.75
2023-05-16T05:49:28.099Z,99582.22
2023-05-16T05:52:30.730Z,99586.16
2023-05-16T05:55:33.505Z,99591.47
2023-05-16T05:58:36.259Z,99594.63
2023-05-16T06:01:39.709Z,99589.94
2023-05-16T06:04:42.841Z,99587.53
2023-05-16T06:07:45.449Z,99574.56
2023-05-16T06:10:48.297Z,99583.41
2023-05-16T06:13:51.134Z,99577.84
2023-05-16T06:16:54.031Z,99572.78
2023-05-16T06:19:56.567Z,99569.34
2023-05-16T06:22:59.454Z,99566.94
2023-05-16T06:26:04.965Z,99564.16
2023-05-16T06:29:07.944Z,99555.38
2023-05-16T06:32:13.115Z,99563.50
2023-05-16T06:35:16.379Z,99562.38
2023-05-16T06:38:19.827Z,99558.72
2023-05-16T06:41:23.619Z,99558.94
2023-05-16T06:44:26.211Z,99563.97
2023-05-16T06:47:29.187Z,99564.94
2023-05-16T06:50:31.788Z,99569.78
2023-05-16T06:53:34.686Z,99571.31
2023-05-16T06:56:37.168Z,99584.84
2023-05-16T06:59:40.276Z,99589.03
2023-05-16T07:02:42.937Z,99588.97
2023-05-16T07:05:45.830Z,99586.56
2023-05-16T07:08:48.817Z,99589.97
2023-05-16T07:11:52.024Z,99584.56
2023-05-16T07:14:54.478Z,99577.44
2023-05-16T07:17:57.592Z,99572.13
2023-05-16T07:21:00.599Z,99551.37
2023-05-16T07:24:03.647Z,99547.88
2023-05-16T07:27:06.367Z,99544.56
2023-05-16T07:30:11.264Z,99552.66
2023-05-16T07:33:13.830Z,99553.53
2023-05-16T07:36:18.792Z,99554.22
2023-05-16T07:39:21.720Z,99557.59
2023-05-16T07:42:24.955Z,99553.88
2023-05-16T07:45:27.686Z,99558.03
2023-05-16T07:48:30.590Z,99551.75
2023-05-16T07:51:33.768Z,99555.50
2023-05-16T07:54:37.499Z,99548.25
2023-05-16T07:57:40.253Z,99546.22
2023-05-16T08:00:43.174Z,99552.41
2023-05-16T08:03:46.144Z,99540.69
2023-05-16T08:06:48.629Z,99535.84
2023-05-16T08:09:52.713Z,99541.38
2023-05-16T08:12:56.458Z,99549.69
2023-05-16T08:15:59.810Z,99545.72
2023-05-16T08:19:02.425Z,99550.13
2023-05-16T08:22:07.685Z,99544.44
2023-05-16T08:25:10.723Z,99549.22
2023-05-16T08:28:13.461Z,99539.13
2023-05-16T08:31:16.096Z,99534.28
2023-05-16T08:34:18.957Z,99533.75
2023-05-16T08:37:21.539Z,99525.22
2023-05-16T08:40:28.281Z,99524.00
2023-05-16T08:43:31.033Z,99527.94
2023-05-16T08:46:37.486Z,99519.06
2023-05-16T08:49:41.778Z,99528.22
2023-05-16T08:52:49.566Z,99528.16
2023-05-16T08:55:53.412Z,99535.72
2023-05-16T08:58:58.024Z,99526.78
2023-05-16T09:02:00.635Z,99532.41
2023-05-16T09:05:08.565Z,99538.22
2023-05-16T09:08:11.473Z,99531.31
2023-05-16T09:11:14.350Z,99529.53
2023-05-16T09:14:17.097Z,99522.88
2023-05-16T09:17:28.765Z,99519.41
2023-05-16T09:20:47.078Z,99516.78
2023-05-16T09:23:51.076Z,99529.50
2023-05-16T09:27:31.906Z,99527.28
2023-05-16T09:30:36.826Z,99533.12
2023-05-16T09:33:42.496Z,99515.25
2023-05-16T09:36:45.226Z,99518.13
2023-05-16T09:39:49.323Z,99521.87
2023-05-16T09:43:14.937Z,99525.25
2023-05-16T09:46:17.726Z,99538.44
2023-05-16T09:49:20.959Z,99530.31
2023-05-16T09:52:27.212Z,99519.59
2023-05-16T09:55:30.779Z,99507.97
2023-05-16T09:58:35.940Z,99514.94
2023-05-16T10:01:42.651Z,99520.78
2023-05-16T10:04:45.791Z,99526.06
2023-05-16T10:07:50.052Z,99516.03
2023-05-16T10:10:55.774Z,99522.63
2023-05-16T10:13:58.396Z,99510.66
2023-05-16T10:17:03.755Z,99493.91
2023-05-16T10:20:10.079Z,99485.03
2023-05-16T10:23:17.679Z,99489.34
2023-05-16T10:26:21.976Z,99489.22
2023-05-16T10:29:25.883Z,99484.22
2023-05-16T10:32:29.650Z,99478.47
2023-05-16T10:35:33.338Z,99474.84
2023-05-16T10:38:37.633Z,99467.84
2023-05-16T10:41:41.764Z,99475.66
2023-05-16T10:44:54.654Z,99474.00
2023-05-16T10:48:10.077Z,99461.78
2023-05-16T10:51:34.407Z,99460.91
2023-05-16T10:54:42.588Z,99462.25
2023-05-16T10:57:45.231Z,99456.59
2023-05-16T11:00:48.164Z,99451.28
2023-05-16T11:04:08.526Z,99450.66
2023-05-16T11:07:17.293Z,99451.38
2023-05-16T11:10:21.656Z,99445.03
2023-05-16T11:13:24.952Z,99431.13
2023-05-16T11:16:28.718Z,99434.47
2023-05-16T11:19:43.902Z,99431.81
2023-05-16T11:22:46.799Z,99424.22
2023-05-16T11:25:57.706Z,99414.91
2023-05-16T11:29:00.311Z,99410.91
2023-05-16T11:32:05.752Z,99389.38
2023-05-16T11:35:14.302Z,99372.28
2023-05-16T11:38:17.709Z,99386.38
2023-05-16T11:41:22.257Z,99389.69
2023-05-16T11:44:25.132Z,99387.03
2023-05-16T11:47:29.828Z,99381.06
2023-05-16T11:50:35.253Z,99384.56
2023-05-16T11:53:38.347Z,99385.91
2023-05-16T11:56:42.885Z,99386.56
2023-05-16T11:59:45.705Z,99380.78
2023-05-16T12:02:52.585Z,99376.78
2023-05-16T12:05:59.426Z,99365.81
2023-05-16T12:09:10.554Z,99379.78
2023-05-16T12:12:13.509Z,99363.16
2023-05-16T12:15:18.434Z,99371.50
2023-05-16T12:18:22.194Z,99369.81
2023-05-16T12:21:25.236Z,99365.16
2023-05-16T12:24:33.084Z,99379.09
2023-05-16T12:27:35.760Z,99372.81
2023-05-16T12:30:41.996Z,99375.78
2023-05-16T12:33:46.809Z,99382.25
2023-05-16T12:36:54.581Z,99377.47
2023-05-16T12:40:02.021Z,99381.75
2023-05-16T12:43:05.443Z,99382.41
2023-05-16T12:46:11.801Z,99369.28
2023-05-16T12:49:15.348Z,99374.44
2023-05-16T12:52:23.167Z,99377.44
2023-05-16T12:55:26.973Z,99362.13
2023-05-16T12:58:30.863Z,99369.78
2023-05-16T13:01:35.153Z,99373.56
2023-05-16T13:04:37.665Z,99371.88
2023-05-16T13:07:40.993Z,99367.94
2023-05-16T13:10:43.576Z,99369.94
2023-05-16T13:13:46.401Z,99374.44
2023-05-16T13:16:48.958Z,99352.34
2023-05-16T13:19:52.194Z,99336.38
2023-05-16T13:22:56.056Z,99327.53
2023-05-16T13:25:59.435Z,99324.56
2023-05-16T13:29:02.401Z,99305.06
2023-05-16T13:32:06.121Z,99307.56
2023-05-16T13:35:09.734Z,99289.94
2023-05-16T13:38:12.701Z,99290.72
2023-05-16T13:41:15.865Z,99289.69
2023-05-16T13:44:24.015Z,99299.78
2023-05-16T13:47:26.655Z,99284.78
2023-05-16T13:50:33.221Z,99281.12
2023-05-16T13:53:36.980Z,99273.81
2023-05-16T13:56:39.875Z,99277.81
2023-05-16T14:02:48.484Z,99286.81
2023-05-16T14:05:51.894Z,99284.22
2023-05-16T14:08:54.791Z,99288.19
2023-05-16T14:11:57.490Z,99276.91
2023-05-16T14:14:59.999Z,99284.84
2023-05-16T14:18:04.833Z,99279.00
2023-05-16T14:21:07.645Z,99283.66
2023-05-16T14:24:10.459Z,99281.41
2023-05-16T14:27:15.114Z,99290.47
2023-05-16T14:30:18.200Z,99301.59
2023-05-16T14:33:21.540Z,99294.88
2023-05-16T14:36:24.634Z,99302.50
2023-05-16T14:39:27.180Z,99304.88
2023-05-16T14:42:30.165Z,99301.44
2023-05-16T14:45:32.858Z,99300.41
2023-05-16T14:48:36.012Z,99298.84
2023-05-16T14:51:38.667Z,99303.28
2023-05-16T14:54:41.798Z,99287.53
2023-05-16T14:57:45.589Z,99285.06
2023-05-16T15:00:48.802Z,99286.72
2023-05-16T15:03:56.059Z,99275.22
2023-05-16T15:06:59.501Z,99279.72
2023-05-16T15:10:02.118Z,99286.72
2023-05-16T15:13:04.993Z,99305.50
2023-05-16T15:16:07.928Z,99309.00
2023-05-16T15:19:10.925Z,99313.31
2023-05-16T15:22:13.638Z,99307.66
2023-05-16T15:25:16.654Z,99301.19
2023-05-16T15:28:21.763Z,99307.66
2023-05-16T15:31:25.634Z,99293.03
2023-05-16T15:34:28.647Z,99283.72
2023-05-16T15:37:31.559Z,99289.06
2023-05-16T15:40:34.178Z,99287.06
2023-05-16T15:43:37.117Z,99283.06
2023-05-16T15:46:39.822Z,99275.44
2023-05-16T15:49:44.204Z,99270.44
2023-05-16T15:52:46.758Z,99255.50
2023-05-16T15:55:49.649Z,99245.53
2023-05-16T15:58:52.157Z,99237.41
2023-05-16T16:01:55.126Z,99240.22
2023-05-16T16:04:58.022Z,99234.91
2023-05-16T16:08:03.307Z,99239.22
2023-05-16T16:11:06.226Z,99248.19
2023-05-16T16:14:10.915Z,99257.81
2023-05-16T16:17:16.281Z,99264.31
2023-05-16T16:20:20.544Z,99259.78
2023-05-16T16:23:24.269Z,99268.09
2023-05-16T16:26:27.234Z,99270.44
2023-05-16T16:29:30.784Z,99277.41
2023-05-16T16:32:33.704Z,99275.22
2023-05-16T16:35:36.671Z,99276.91
2023-05-16T16:38:39.382Z,99269.41
2023-05-16T16:41:42.228Z,99259.47
2023-05-16T16:44:44.871Z,99254.97
2023-05-16T16:47:47.809Z,99252.47
2023-05-16T16:50:52.082Z,99250.84
2023-05-16T16:53:54.987Z,99249.84
2023-05-16T16:56:57.904Z,99240.88
2023-05-16T17:00:02.643Z,99247.50
2023-05-16T17:03:05.988Z,99249.50
2023-05-16T17:06:09.550Z,99258.81
2023-05-16T17:09:16.933Z,99268.59
2023-05-16T17:12:20.326Z,99264.94
2023-05-16T17:15:23.118Z,99254.16
2023-05-16T17:18:26.562Z,99244.19
2023-05-16T17:21:29.515Z,99249.81
2023-05-16T17:24:32.625Z,99245.03
2023-05-16T17:27:36.339Z,99254.66
2023-05-16T17:30:39.209Z,99249.69
2023-05-16T17:33:41.812Z,99268.28
2023-05-16T17:36:45.374Z,99277.75
2023-05-16T17:39:47.970Z,99284.06
2023-05-16T17:42:51.513Z,99278.41
2023-05-16T17:45:54.231Z,99264.13
2023-05-16T17:48:57.079Z,99267.75
2023-05-16T17:52:00.706Z,99262.78
2023-05-16T17:55:05.063Z,99264.78
2023-05-16T17:58:09.697Z,99269.75
2023-05-16T18:01:13.119Z,99267.09
2023-05-16T18:04:18.587Z,99257.13
2023-05-16T18:07:23.511Z,99264.59
2023-05-16T18:10:29.617Z,99261.44
2023-05-16T18:13:39.356Z,99255.78
2023-05-16T18:16:42.221Z,99254.78
2023-05-16T18:19:45.045Z,99253.94
2023-05-16T18:22:47.990Z,99249.16
2023-05-16T18:25:51.806Z,99265.44
2023-05-16T18:28:56.867Z,99269.09
2023-05-16T18:32:00.128Z,99259.81
2023-05-16T18:35:03.020Z,99258.44
2023-05-16T18:38:06.921Z,99256.44
2023-05-16T18:41:11.976Z,99258.44
2023-05-16T18:44:16.987Z,99264.13
2023-05-16T18:47:21.011Z,99255.50
2023-05-16T18:50:24.211Z,99247.50
2023-05-16T18:53:30.461Z,99243.34
2023-05-16T18:56:33.254Z,99253.13
2023-05-16T18:59:37.050Z,99257.78
2023-05-16T19:02:42.543Z,99252.16
2023-05-16T19:05:46.176Z,99252.81
2023-05-16T19:08:48.745Z,99258.16
2023-05-16T19:11:51.830Z,99258.62
2023-05-16T19:14:54.285Z,99262.97
2023-05-16T19:17:57.250Z,99261.09
2023-05-16T19:21:00.217Z,99266.44
2023-05-16T19:24:03.683Z,99266.44
2023-05-16T19:27:06.519Z,99266.78
2023-05-16T19:30:12.286Z,99269.63
2023-05-16T19:33:16.576Z,99271.75
2023-05-16T19:36:19.408Z,99273.75
2023-05-16T19:39:22.134Z,99278.41
2023-05-16T19:42:24.987Z,99276.59
2023-05-16T19:45:27.642Z,99270.44
2023-05-16T19:48:30.866Z,99270.44
2023-05-16T19:51:41.451Z,99269.78
2023-05-16T19:54:44.887Z,99264.81
2023-05-16T19:57:47.475Z,99268.44
2023-05-16T20:00:50.948Z,99260.47
2023-05-16T20:03:56.205Z,99253.81
2023-05-16T20:06:58.744Z,99250.88
2023-05-16T20:10:01.606Z,99249.38
2023-05-16T20:13:04.694Z,99261.16
2023-05-16T20:16:07.497Z,99260.47
2023-05-16T20:19:10.228Z,99264.81
2023-05-16T20:22:13.153Z,99267.78
2023-05-16T20:25:15.657Z,99268.44
2023-05-16T20:28:18.491Z,99269.94
2023-05-16T20:31:23.371Z,99262.97
2023-05-16T20:34:26.249Z,99266.31
2023-05-16T20:37:28.928Z,99259.13
2023-05-16T20:40:32.085Z,99257.66
2023-05-16T20:43:34.748Z,99259.66
2023-05-16T20:46:37.549Z,99259.66
2023-05-16T20:49:40.282Z,99254.81
2023-05-16T20:52:53.549Z,99250.81
2023-05-16T20:55:56.037Z,99249.81
2023-05-16T20:58:58.808Z,99254.81
2023-05-16T21:02:01.376Z,99248.00
2023-05-16T21:05:34.603Z,99249.16
2023-05-16T21:08:27.347Z,99251.50
2023-05-16T21:11:32.755Z,99258.50
2023-05-16T21:14:35.288Z,99259.13
2023-05-16T21:17:39.524Z,99258.69
2023-05-16T21:20:42.223Z,99263.13
2023-05-16T21:23:45.060Z,99263.13
2023-05-16T21:26:47.603Z,99266.44
2023-05-16T21:29:50.413Z,99271.59
2023-05-16T21:32:53.204Z,99263.81
2023-05-16T21:35:56.365Z,99258.62
2023-05-16T21:38:58.935Z,99250.84
2023-05-16T21:42:01.748Z,99255.66
2023-05-16T21:45:04.506Z,99254.16
2023-05-16T21:48:07.482Z,99249.50
2023-05-16T21:51:10.596Z,99246.69
2023-05-16T21:54:13.432Z,99245.87
2023-05-16T21:57:19.002Z,99242.38
2023-05-16T22:00:22.350Z,99234.59
2023-05-16T22:03:25.273Z,99236.06
2023-05-16T22:06:27.874Z,99237.91
2023-05-16T22:09:31.005Z,99235.22
2023-05-16T22:12:33.805Z,99224.25
2023-05-16T22:15:36.900Z,99243.84
2023-05-16T22:18:39.668Z,99236.91
2023-05-16T22:21:42.570Z,99235.88
2023-05-16T22:24:45.123Z,99231.41
2023-05-16T22:27:47.924Z,99231.91
2023-05-16T22:30:51.566Z,99234.38
2023-05-16T22:33:54.544Z,99234.38
2023-05-16T22:36:57.015Z,99233.91
2023-05-16T22:40:00.409Z,99238.19
2023-05-16T22:43:02.914Z,99244.50
2023-05-16T22:46:05.876Z,99240.81
2023-05-16T22:49:08.470Z,99240.47
2023-05-16T22:52:11.539Z,99241.81
2023-05-16T22:55:14.207Z,99247.78
2023-05-16T22:58:17.072Z,99240.66
2023-05-16T23:01:19.615Z,99240.81
2023-05-16T23:04:22.686Z,99247.47
2023-05-16T23:07:25.308Z,99246.13
2023-05-16T23:10:28.274Z,99249.09
2023-05-16T23:13:30.750Z,99245.66
2023-05-16T23:16:33.692Z,99250.41
2023-05-16T23:19:36.419Z,99256.06
2023-05-16T23:22:39.333Z,99253.25
2023-05-16T23:25:41.864Z,99257.06
2023-05-16T23:28:44.675Z,99257.41
2023-05-16T23:31:47.167Z,99259.09
2023-05-16T23:34:50.166Z,99254.78
2023-05-16T23:37:52.694Z,99259.09
2023-05-16T23:40:55.678Z,99265.41
2023-05-16T23:43:58.191Z,99263.75
2023-05-16T23:47:01.280Z,99260.09
2023-05-16T23:50:04.240Z,99255.94
2023-05-16T23:53:10.084Z,99256.97
2023-05-16T23:56:13.003Z,99256.47
2023-05-16T23:59:16.420Z,99252.78
